createdAt,value
2022-11-10T00:00:02.452Z,83.74
2022-11-10T00:01:02.313Z,83.74
2022-11-10T00:02:02.520Z,83.98
2022-11-10T00:03:02.602Z,83.74
2022-11-10T00:04:02.571Z,83.89
2022-11-10T00:05:02.482Z,83.84
2022-11-10T00:06:02.346Z,83.98
2022-11-10T00:07:02.412Z,84.05
2022-11-10T00:08:02.216Z,83.84
2022-11-10T00:09:02.839Z,83.95
2022-11-10T00:10:02.851Z,83.74
2022-11-10T00:11:02.543Z,83.64
2022-11-10T00:12:02.453Z,83.64
2022-11-10T00:13:02.585Z,83.64
2022-11-10T00:14:02.563Z,83.74
2022-11-10T00:15:03.014Z,83.54
2022-11-10T00:16:02.909Z,83.44
2022-11-10T00:17:02.925Z,83.54
2022-11-10T00:18:03.089Z,83.54
2022-11-10T00:19:03.523Z,83.44
2022-11-10T00:20:03.224Z,83.64
2022-11-10T00:21:03.105Z,83.74
2022-11-10T00:22:03.178Z,83.44
2022-11-10T00:23:03.560Z,83.64
2022-11-10T00:24:03.264Z,83.64
2022-11-10T00:25:03.184Z,83.64
2022-11-10T00:26:03.514Z,83.74
2022-11-10T00:27:02.378Z,83.74
2022-11-10T00:28:02.618Z,83.74
2022-11-10T00:29:02.513Z,83.74
2022-11-10T00:30:02.849Z,83.84
2022-11-10T00:31:02.558Z,83.95
2022-11-10T00:32:03.173Z,83.84
2022-11-10T00:33:03.386Z,83.84
2022-11-10T00:34:03.278Z,83.74
2022-11-10T00:35:03.101Z,83.64
2022-11-10T00:36:03.126Z,83.84
2022-11-10T00:37:02.780Z,83.84
2022-11-10T00:38:02.984Z,83.74
2022-11-10T00:39:03.238Z,83.64
2022-11-10T00:40:02.913Z,83.74
2022-11-10T00:41:03.099Z,83.54
2022-11-10T00:42:03.435Z,83.54
2022-11-10T00:43:03.225Z,83.64
2022-11-10T00:44:03.652Z,83.44
2022-11-10T00:45:03.294Z,83.64
2022-11-10T00:46:03.636Z,83.74
2022-11-10T00:47:03.515Z,83.95
2022-11-10T00:48:03.573Z,83.74
2022-11-10T00:49:03.576Z,83.74
2022-11-10T00:50:03.171Z,83.74
2022-11-10T00:51:03.358Z,83.64
2022-11-10T00:52:03.266Z,83.64
2022-11-10T00:53:03.201Z,83.84
2022-11-10T00:54:03.362Z,83.74
2022-11-10T00:55:03.224Z,83.84
2022-11-10T00:56:03.412Z,83.84
2022-11-10T00:57:03.079Z,83.95
2022-11-10T00:58:03.382Z,84.05
2022-11-10T00:59:02.950Z,84.05
2022-11-10T01:00:02.986Z,84.15
2022-11-10T01:01:03.157Z,84.25
2022-11-10T01:02:02.766Z,84.15
2022-11-10T01:03:02.944Z,84.29
2022-11-10T01:04:02.994Z,84.45
2022-11-10T01:05:02.376Z,84.25
2022-11-10T01:06:02.328Z,84.15
2022-11-10T01:07:02.996Z,83.95
2022-11-10T01:08:02.895Z,84.35
2022-11-10T01:09:02.984Z,84.05
2022-11-10T01:10:02.930Z,84.05
2022-11-10T01:11:02.952Z,84.29
2022-11-10T01:12:02.553Z,84.50
2022-11-10T01:13:02.828Z,84.50
2022-11-10T01:14:02.711Z,84.59
2022-11-10T01:15:02.530Z,84.59
2022-11-10T01:16:02.583Z,84.70
2022-11-10T01:17:02.941Z,84.80
2022-11-10T01:18:02.778Z,84.80
2022-11-10T01:19:03.286Z,84.59
2022-11-10T01:20:03.322Z,84.59
2022-11-10T01:21:02.932Z,84.70
2022-11-10T01:22:02.097Z,84.59
2022-11-10T01:23:02.230Z,84.50
2022-11-10T01:24:02.055Z,84.59
2022-11-10T01:25:01.909Z,84.29
2022-11-10T01:26:02.340Z,84.50
2022-11-10T01:27:02.075Z,84.50
2022-11-10T01:28:02.128Z,84.59
2022-11-10T01:29:02.031Z,84.39
2022-11-10T01:30:01.853Z,84.39
2022-11-10T01:31:01.876Z,84.80
2022-11-10T01:32:02.961Z,84.39
2022-11-10T01:33:02.907Z,84.39
2022-11-10T01:34:02.424Z,84.50
2022-11-10T01:35:02.564Z,84.74
2022-11-10T01:36:02.566Z,85.14
2022-11-10T01:37:02.974Z,85.35
2022-11-10T01:38:02.799Z,85.35
2022-11-10T01:39:03.382Z,85.45
2022-11-10T01:40:03.059Z,85.35
2022-11-10T01:41:02.992Z,85.55
2022-11-10T01:42:02.222Z,85.66
2022-11-10T01:43:02.427Z,85.75
2022-11-10T01:44:02.713Z,86.00
2022-11-10T01:45:02.891Z,86.30
2022-11-10T01:46:02.873Z,86.21
2022-11-10T01:47:01.946Z,86.10
2022-11-10T01:48:02.077Z,86.00
2022-11-10T01:49:01.986Z,86.21
2022-11-10T01:50:02.116Z,86.30
2022-11-10T01:51:02.053Z,86.30
2022-11-10T01:52:02.588Z,86.21
2022-11-10T01:53:02.445Z,86.30
2022-11-10T01:54:02.667Z,86.41
2022-11-10T01:55:02.703Z,86.41
2022-11-10T01:56:02.581Z,86.41
2022-11-10T01:57:02.880Z,86.41
2022-11-10T01:58:03.061Z,86.51
2022-11-10T01:59:02.768Z,86.30
2022-11-10T02:00:02.789Z,86.06
2022-11-10T02:01:02.663Z,86.27
2022-11-10T02:02:02.695Z,85.96
2022-11-10T02:03:02.403Z,86.06
2022-11-10T02:04:02.277Z,85.75
2022-11-10T02:05:02.688Z,85.66
2022-11-10T02:06:02.453Z,85.75
2022-11-10T02:07:02.543Z,85.66
2022-11-10T02:08:02.492Z,85.86
2022-11-10T02:09:02.687Z,86.06
2022-11-10T02:10:02.646Z,85.96
2022-11-10T02:11:02.508Z,85.86
2022-11-10T02:12:02.539Z,86.00
2022-11-10T02:13:02.822Z,86.30
2022-11-10T02:14:02.761Z,86.21
2022-11-10T02:15:02.975Z,85.66
2022-11-10T02:16:02.823Z,85.66
2022-11-10T02:17:01.853Z,85.66
2022-11-10T02:18:01.968Z,85.66
2022-11-10T02:19:02.339Z,86.00
2022-11-10T02:20:02.313Z,86.00
2022-11-10T02:21:02.344Z,86.00
2022-11-10T02:22:02.793Z,86.21
2022-11-10T02:23:02.339Z,86.41
2022-11-10T02:24:02.845Z,86.71
2022-11-10T02:25:02.705Z,86.61
2022-11-10T02:26:02.532Z,86.51
2022-11-10T02:27:02.511Z,86.41
2022-11-10T02:28:03.019Z,86.41
2022-11-10T02:29:03.066Z,86.30
2022-11-10T02:30:03.132Z,86.55
2022-11-10T02:31:02.540Z,86.51
2022-11-10T02:32:02.404Z,86.55
2022-11-10T02:33:02.310Z,86.65
2022-11-10T02:34:02.221Z,86.65
2022-11-10T02:35:02.201Z,86.76
2022-11-10T02:36:02.497Z,86.65
2022-11-10T02:37:02.251Z,86.96
2022-11-10T02:38:02.178Z,86.55
2022-11-10T02:39:02.536Z,86.86
2022-11-10T02:40:02.256Z,86.65
2022-11-10T02:41:02.126Z,86.76
2022-11-10T02:42:02.477Z,86.76
2022-11-10T02:43:02.688Z,86.86
2022-11-10T02:44:02.323Z,87.16
2022-11-10T02:45:02.212Z,87.26
2022-11-10T02:46:02.083Z,87.37
2022-11-10T02:47:01.702Z,87.16
2022-11-10T02:48:01.905Z,87.37
2022-11-10T02:49:02.122Z,87.16
2022-11-10T02:50:02.074Z,87.26
2022-11-10T02:51:02.154Z,87.37
2022-11-10T02:52:02.310Z,87.37
2022-11-10T02:53:02.206Z,86.96
2022-11-10T02:54:02.669Z,86.86
2022-11-10T02:55:02.395Z,87.26
2022-11-10T02:56:02.130Z,87.26
2022-11-10T02:57:02.592Z,87.51
2022-11-10T02:58:03.027Z,87.71
2022-11-10T02:59:02.895Z,87.92
2022-11-10T03:00:02.549Z,88.02
2022-11-10T03:01:02.725Z,87.82
2022-11-10T03:02:03.052Z,87.51
2022-11-10T03:03:02.803Z,87.82
2022-11-10T03:04:03.247Z,88.02
2022-11-10T03:05:03.166Z,88.22
2022-11-10T03:06:03.117Z,88.02
2022-11-10T03:07:03.112Z,88.02
2022-11-10T03:08:03.616Z,88.22
2022-11-10T03:09:03.299Z,88.53
2022-11-10T03:10:03.234Z,88.53
2022-11-10T03:11:03.491Z,88.53
2022-11-10T03:12:03.318Z,88.32
2022-11-10T03:13:02.956Z,88.32
2022-11-10T03:14:03.013Z,88.22
2022-11-10T03:15:02.734Z,87.82
2022-11-10T03:16:03.018Z,88.12
2022-11-10T03:17:03.509Z,88.22
2022-11-10T03:18:03.005Z,88.32
2022-11-10T03:19:03.439Z,88.43
2022-11-10T03:20:03.497Z,88.47
2022-11-10T03:21:03.303Z,88.47
2022-11-10T03:22:03.352Z,88.57
2022-11-10T03:23:03.207Z,88.22
2022-11-10T03:24:03.213Z,88.22
2022-11-10T03:25:03.833Z,88.32
2022-11-10T03:26:03.508Z,88.02
2022-11-10T03:27:02.984Z,87.71
2022-11-10T03:28:02.876Z,87.51
2022-11-10T03:29:02.901Z,87.61
2022-11-10T03:30:02.652Z,87.20
2022-11-10T03:31:02.715Z,86.59
2022-11-10T03:32:02.591Z,86.49
2022-11-10T03:33:03.005Z,86.39
2022-11-10T03:34:02.858Z,86.59
2022-11-10T03:35:03.118Z,86.49
2022-11-10T03:36:02.803Z,86.18
2022-11-10T03:37:03.200Z,85.88
2022-11-10T03:38:03.322Z,85.43
2022-11-10T03:39:03.589Z,85.43
2022-11-10T03:40:03.467Z,86.49
2022-11-10T03:41:18.613Z,86.59
2022-11-10T03:42:02.888Z,85.37
2022-11-10T03:43:03.355Z,86.08
2022-11-10T03:44:03.197Z,86.18
2022-11-10T03:45:03.069Z,85.47
2022-11-10T03:46:02.859Z,85.47
2022-11-10T03:47:03.610Z,84.86
2022-11-10T03:48:03.546Z,84.55
2022-11-10T03:49:03.495Z,85.98
2022-11-10T03:50:03.336Z,85.98
2022-11-10T03:51:03.702Z,85.68
2022-11-10T03:52:02.816Z,86.39
2022-11-10T03:53:02.688Z,86.39
2022-11-10T03:54:02.750Z,86.94
2022-11-10T03:55:03.683Z,87.55
2022-11-10T03:56:02.475Z,87.35
2022-11-10T03:57:03.024Z,87.35
2022-11-10T03:58:03.493Z,87.45
2022-11-10T03:59:02.977Z,88.06
2022-11-10T04:00:03.283Z,88.61
2022-11-10T04:01:03.007Z,88.92
2022-11-10T04:02:02.785Z,88.61
2022-11-10T04:03:02.516Z,88.71
2022-11-10T04:04:02.530Z,88.82
2022-11-10T04:05:02.811Z,88.51
2022-11-10T04:06:02.728Z,87.76
2022-11-10T04:07:02.971Z,87.85
2022-11-10T04:08:03.163Z,87.76
2022-11-10T04:09:02.694Z,86.94
2022-11-10T04:10:02.659Z,86.83
2022-11-10T04:11:03.113Z,87.35
2022-11-10T04:12:03.249Z,86.39
2022-11-10T04:13:03.264Z,86.29
2022-11-10T04:14:03.370Z,86.39
2022-11-10T04:15:02.829Z,87.14
2022-11-10T04:16:02.727Z,86.83
2022-11-10T04:17:02.616Z,86.73
2022-11-10T04:18:02.112Z,87.14
2022-11-10T04:19:02.700Z,87.45
2022-11-10T04:20:02.110Z,88.26
2022-11-10T04:21:02.220Z,88.71
2022-11-10T04:22:03.409Z,88.61
2022-11-10T04:23:02.612Z,88.71
2022-11-10T04:24:02.691Z,88.51
2022-11-10T04:25:02.561Z,88.61
2022-11-10T04:26:03.168Z,88.67
2022-11-10T04:27:02.882Z,88.47
2022-11-10T04:28:03.128Z,88.26
2022-11-10T04:29:03.407Z,88.26
2022-11-10T04:30:03.169Z,87.65
2022-11-10T04:31:03.003Z,87.76
2022-11-10T04:32:02.891Z,87.35
2022-11-10T04:33:02.579Z,87.04
2022-11-10T04:34:02.389Z,86.83
2022-11-10T04:35:02.432Z,86.63
2022-11-10T04:36:02.323Z,86.63
2022-11-10T04:37:03.026Z,87.14
2022-11-10T04:38:02.635Z,86.73
2022-11-10T04:39:03.027Z,87.76
2022-11-10T04:40:02.630Z,87.14
2022-11-10T04:41:03.189Z,87.96
2022-11-10T04:42:03.163Z,87.76
2022-11-10T04:43:03.245Z,87.85
2022-11-10T04:44:03.354Z,87.65
2022-11-10T04:45:02.970Z,87.85
2022-11-10T04:46:02.861Z,87.96
2022-11-10T04:47:03.880Z,87.76
2022-11-10T04:48:02.441Z,88.06
2022-11-10T04:49:02.262Z,88.26
2022-11-10T04:50:02.114Z,88.26
2022-11-10T04:51:02.328Z,88.17
2022-11-10T04:52:03.075Z,88.17
2022-11-10T04:53:03.167Z,87.35
2022-11-10T04:54:02.686Z,87.45
2022-11-10T04:55:02.971Z,87.55
2022-11-10T04:56:03.125Z,87.79
2022-11-10T04:57:03.375Z,87.79
2022-11-10T04:58:03.286Z,88.51
2022-11-10T04:59:03.218Z,88.00
2022-11-10T05:00:03.173Z,87.59
2022-11-10T05:01:03.333Z,88.51
2022-11-10T05:02:02.571Z,88.20
2022-11-10T05:03:02.428Z,88.31
2022-11-10T05:04:02.315Z,88.71
2022-11-10T05:05:02.190Z,88.51
2022-11-10T05:06:02.646Z,88.00
2022-11-10T05:07:03.330Z,88.61
2022-11-10T05:08:03.442Z,88.20
2022-11-10T05:09:02.986Z,88.51
2022-11-10T05:10:03.302Z,88.76
2022-11-10T05:11:03.041Z,89.06
2022-11-10T05:12:02.633Z,88.76
2022-11-10T05:13:02.271Z,88.85
2022-11-10T05:14:02.302Z,88.45
2022-11-10T05:15:02.156Z,88.14
2022-11-10T05:16:01.968Z,88.24
2022-11-10T05:17:02.760Z,89.37
2022-11-10T05:18:02.309Z,89.47
2022-11-10T05:19:02.843Z,89.88
2022-11-10T05:20:02.525Z,89.67
2022-11-10T05:21:02.870Z,89.78
2022-11-10T05:22:02.834Z,89.37
2022-11-10T05:23:03.355Z,89.78
2022-11-10T05:24:02.872Z,90.43
2022-11-10T05:25:02.677Z,90.64
2022-11-10T05:26:02.932Z,91.05
2022-11-10T05:27:02.292Z,90.74
2022-11-10T05:28:02.528Z,90.43
2022-11-10T05:29:02.007Z,89.88
2022-11-10T05:30:02.090Z,90.02
2022-11-10T05:31:02.533Z,90.64
2022-11-10T05:32:02.361Z,90.43
2022-11-10T05:33:02.292Z,90.33
2022-11-10T05:34:02.909Z,90.53
2022-11-10T05:35:02.350Z,89.98
2022-11-10T05:36:02.293Z,89.78
2022-11-10T05:37:03.323Z,89.17
2022-11-10T05:38:02.870Z,89.67
2022-11-10T05:39:02.857Z,89.26
2022-11-10T05:40:02.748Z,88.76
2022-11-10T05:41:03.431Z,89.17
2022-11-10T05:42:02.862Z,89.17
2022-11-10T05:43:03.274Z,89.17
2022-11-10T05:44:03.415Z,89.47
2022-11-10T05:45:03.387Z,90.43
2022-11-10T05:46:03.051Z,90.64
2022-11-10T05:47:02.947Z,90.33
2022-11-10T05:48:02.280Z,90.33
2022-11-10T05:49:02.764Z,90.23
2022-11-10T05:50:02.344Z,90.43
2022-11-10T05:51:02.926Z,90.53
2022-11-10T05:52:02.882Z,90.64
2022-11-10T05:53:02.591Z,90.64
2022-11-10T05:54:02.627Z,90.53
2022-11-10T05:55:02.830Z,90.74
2022-11-10T05:56:02.611Z,90.94
2022-11-10T05:57:02.792Z,90.84
2022-11-10T05:58:02.948Z,90.94
2022-11-10T05:59:03.367Z,90.84
2022-11-10T06:00:03.072Z,90.53
2022-11-10T06:01:02.668Z,90.12
2022-11-10T06:02:02.660Z,89.92
2022-11-10T06:03:03.213Z,89.26
2022-11-10T06:04:03.407Z,89.78
2022-11-10T06:05:03.322Z,90.12
2022-11-10T06:06:02.959Z,89.78
2022-11-10T06:07:02.990Z,89.37
2022-11-10T06:08:03.524Z,89.58
2022-11-10T06:09:03.366Z,89.47
2022-11-10T06:10:03.044Z,89.31
2022-11-10T06:11:03.333Z,90.02
2022-11-10T06:12:03.512Z,89.51
2022-11-10T06:13:03.353Z,90.12
2022-11-10T06:14:03.667Z,90.12
2022-11-10T06:15:03.467Z,90.02
2022-11-10T06:16:03.172Z,90.33
2022-11-10T06:17:02.996Z,90.02
2022-11-10T06:18:02.533Z,90.02
2022-11-10T06:19:02.866Z,90.02
2022-11-10T06:20:02.753Z,90.64
2022-11-10T06:21:02.817Z,90.53
2022-11-10T06:22:07.507Z,90.43
2022-11-10T06:23:03.065Z,90.64
2022-11-10T06:24:02.882Z,90.53
2022-11-10T06:25:03.208Z,90.64
2022-11-10T06:26:02.976Z,90.58
2022-11-10T06:27:02.528Z,90.23
2022-11-10T06:28:02.750Z,90.84
2022-11-10T06:29:02.972Z,91.19
2022-11-10T06:30:02.605Z,90.23
2022-11-10T06:31:02.960Z,90.58
2022-11-10T06:32:02.863Z,90.78
2022-11-10T06:33:03.330Z,91.09
2022-11-10T06:34:03.014Z,91.19
2022-11-10T06:35:02.828Z,91.19
2022-11-10T06:36:03.159Z,90.37
2022-11-10T06:37:03.572Z,90.27
2022-11-10T06:38:03.014Z,90.78
2022-11-10T06:39:03.476Z,91.19
2022-11-10T06:40:03.635Z,91.39
2022-11-10T06:41:03.539Z,91.50
2022-11-10T06:42:03.225Z,91.70
2022-11-10T06:43:03.626Z,91.70
2022-11-10T06:44:03.704Z,91.60
2022-11-10T06:45:03.306Z,91.60
2022-11-10T06:46:03.535Z,91.70
2022-11-10T06:47:02.688Z,91.70
2022-11-10T06:48:03.018Z,91.60
2022-11-10T06:49:02.929Z,91.80
2022-11-10T06:50:02.880Z,91.70
2022-11-10T06:51:02.921Z,91.60
2022-11-10T06:52:03.284Z,91.50
2022-11-10T06:53:03.162Z,91.09
2022-11-10T06:54:02.880Z,91.60
2022-11-10T06:55:02.967Z,91.39
2022-11-10T06:56:03.364Z,91.39
2022-11-10T06:57:03.724Z,91.70
2022-11-10T06:58:03.757Z,92.36
2022-11-10T06:59:03.329Z,91.09
2022-11-10T07:00:03.640Z,91.54
2022-11-10T07:01:03.675Z,92.01
2022-11-10T07:02:02.922Z,91.74
2022-11-10T07:03:02.760Z,92.15
2022-11-10T07:04:19.312Z,92.36
2022-11-10T07:05:02.995Z,92.25
2022-11-10T07:06:03.034Z,92.36
2022-11-10T07:07:03.454Z,91.85
2022-11-10T07:08:03.168Z,92.15
2022-11-10T07:09:03.221Z,92.36
2022-11-10T07:10:06.987Z,91.64
2022-11-10T07:11:03.403Z,91.85
2022-11-10T07:12:03.466Z,92.25
2022-11-10T07:13:03.171Z,92.15
2022-11-10T07:14:03.335Z,92.46
2022-11-10T07:15:03.411Z,92.15
2022-11-10T07:16:03.634Z,91.64
2022-11-10T07:17:03.469Z,91.85
2022-11-10T07:18:03.744Z,92.36
2022-11-10T07:19:03.423Z,92.46
2022-11-10T07:20:03.648Z,92.66
2022-11-10T07:21:03.878Z,92.25
2022-11-10T07:22:08.013Z,92.25
2022-11-10T07:23:02.914Z,92.36
2022-11-10T07:24:02.572Z,92.46
2022-11-10T07:25:02.440Z,92.46
2022-11-10T07:26:02.402Z,92.25
2022-11-10T07:27:03.236Z,91.74
2022-11-10T07:28:02.862Z,91.64
2022-11-10T07:29:02.960Z,92.15
2022-11-10T07:30:03.092Z,92.36
2022-11-10T07:31:02.917Z,91.03
2022-11-10T07:32:02.863Z,91.54
2022-11-10T07:33:02.658Z,91.44
2022-11-10T07:34:02.801Z,91.74
2022-11-10T07:35:02.701Z,91.13
2022-11-10T07:36:02.725Z,91.29
2022-11-10T07:37:03.407Z,91.80
2022-11-10T07:38:03.366Z,91.29
2022-11-10T07:39:03.583Z,91.95
2022-11-10T07:40:03.038Z,92.32
2022-11-10T07:41:03.015Z,92.77
2022-11-10T07:42:02.916Z,92.72
2022-11-10T07:43:02.588Z,92.87
2022-11-10T07:44:02.747Z,93.03
2022-11-10T07:45:02.811Z,93.18
2022-11-10T07:46:02.825Z,93.03
2022-11-10T07:47:02.687Z,92.83
2022-11-10T07:48:02.821Z,92.01
2022-11-10T07:49:02.709Z,92.62
2022-11-10T07:50:03.146Z,92.11
2022-11-10T07:51:02.856Z,92.42
2022-11-10T07:52:03.813Z,92.72
2022-11-10T07:53:03.925Z,92.52
2022-11-10T07:54:03.770Z,92.83
2022-11-10T07:55:03.592Z,92.88
2022-11-10T07:56:03.917Z,92.88
2022-11-10T07:57:02.852Z,92.78
2022-11-10T07:58:03.255Z,92.68
2022-11-10T07:59:02.915Z,92.58
2022-11-10T08:00:03.244Z,92.58
2022-11-10T08:01:03.419Z,91.96
2022-11-10T08:02:02.720Z,91.35
2022-11-10T08:03:02.780Z,91.52
2022-11-10T08:04:02.804Z,91.41
2022-11-10T08:05:02.355Z,91.20
2022-11-10T08:06:02.935Z,91.31
2022-11-10T08:07:02.372Z,91.61
2022-11-10T08:08:02.083Z,91.31
2022-11-10T08:09:02.263Z,90.80
2022-11-10T08:10:02.171Z,91.41
2022-11-10T08:11:02.221Z,91.00
2022-11-10T08:12:02.511Z,91.31
2022-11-10T08:13:02.553Z,91.52
2022-11-10T08:14:02.850Z,91.82
2022-11-10T08:15:02.643Z,91.82
2022-11-10T08:16:02.422Z,91.98
2022-11-10T08:17:03.153Z,91.98
2022-11-10T08:18:02.980Z,91.98
2022-11-10T08:19:02.834Z,92.19
2022-11-10T08:20:02.820Z,91.88
2022-11-10T08:21:02.717Z,91.47
2022-11-10T08:22:03.007Z,91.33
2022-11-10T08:23:02.959Z,91.43
2022-11-10T08:24:03.028Z,91.63
2022-11-10T08:25:02.937Z,91.33
2022-11-10T08:26:02.781Z,91.43
2022-11-10T08:27:02.539Z,91.33
2022-11-10T08:28:02.190Z,91.33
2022-11-10T08:29:02.340Z,91.12
2022-11-10T08:30:02.657Z,90.92
2022-11-10T08:31:05.551Z,91.08
2022-11-10T08:32:02.723Z,90.57
2022-11-10T08:33:02.565Z,90.36
2022-11-10T08:34:02.670Z,90.47
2022-11-10T08:35:02.245Z,90.57
2022-11-10T08:36:02.184Z,90.57
2022-11-10T08:37:03.167Z,90.36
2022-11-10T08:38:08.077Z,90.57
2022-11-10T08:39:02.808Z,90.53
2022-11-10T08:40:03.223Z,90.42
2022-11-10T08:41:02.800Z,90.32
2022-11-10T08:42:02.203Z,90.12
2022-11-10T08:43:02.605Z,90.12
2022-11-10T08:44:02.138Z,89.81
2022-11-10T08:45:02.171Z,89.57
2022-11-10T08:46:02.288Z,89.00
2022-11-10T08:47:02.788Z,88.75
2022-11-10T08:48:02.546Z,89.16
2022-11-10T08:49:02.219Z,88.75
2022-11-10T08:50:02.237Z,88.65
2022-11-10T08:51:02.252Z,88.85
2022-11-10T08:52:02.725Z,88.34
2022-11-10T08:53:02.849Z,87.90
2022-11-10T08:54:02.985Z,88.20
2022-11-10T08:55:03.033Z,88.31
2022-11-10T08:56:03.086Z,88.20
2022-11-10T08:57:02.204Z,88.00
2022-11-10T08:58:02.758Z,87.18
2022-11-10T08:59:02.678Z,87.38
2022-11-10T09:00:02.298Z,87.90
2022-11-10T09:01:02.326Z,87.35
2022-11-10T09:02:02.812Z,87.24
2022-11-10T09:03:02.845Z,86.43
2022-11-10T09:04:03.408Z,87.04
2022-11-10T09:05:02.908Z,86.83
2022-11-10T09:06:03.338Z,87.24
2022-11-10T09:07:03.672Z,87.30
2022-11-10T09:08:03.549Z,86.90
2022-11-10T09:09:03.111Z,86.29
2022-11-10T09:10:07.345Z,86.29
2022-11-10T09:11:03.355Z,86.19
2022-11-10T09:12:02.629Z,86.35
2022-11-10T09:13:03.120Z,86.45
2022-11-10T09:14:02.785Z,85.94
2022-11-10T09:15:02.755Z,85.94
2022-11-10T09:16:02.955Z,85.64
2022-11-10T09:17:03.165Z,85.33
2022-11-10T09:18:03.041Z,85.60
2022-11-10T09:19:02.992Z,85.49
2022-11-10T09:20:03.136Z,85.09
2022-11-10T09:21:03.076Z,85.29
2022-11-10T09:22:02.461Z,84.88
2022-11-10T09:23:02.727Z,84.88
2022-11-10T09:24:02.797Z,84.99
2022-11-10T09:25:02.841Z,85.19
2022-11-10T09:26:02.487Z,85.19
2022-11-10T09:27:03.207Z,85.19
2022-11-10T09:28:02.629Z,85.25
2022-11-10T09:29:03.120Z,84.74
2022-11-10T09:30:02.718Z,84.84
2022-11-10T09:31:02.855Z,85.05
2022-11-10T09:32:03.356Z,84.54
2022-11-10T09:33:03.146Z,84.91
2022-11-10T09:34:03.161Z,85.11
2022-11-10T09:35:03.225Z,84.50
2022-11-10T09:36:03.098Z,84.20
2022-11-10T09:37:03.375Z,82.87
2022-11-10T09:38:03.617Z,82.57
2022-11-10T09:39:03.120Z,82.98
2022-11-10T09:40:03.266Z,83.28
2022-11-10T09:41:03.122Z,82.87
2022-11-10T09:42:02.366Z,82.98
2022-11-10T09:43:02.380Z,83.59
2022-11-10T09:44:02.591Z,83.48
2022-11-10T09:45:02.348Z,82.57
2022-11-10T09:46:02.802Z,82.67
2022-11-10T09:47:02.985Z,83.24
2022-11-10T09:48:02.900Z,82.73
2022-11-10T09:49:02.891Z,82.43
2022-11-10T09:50:02.822Z,82.03
2022-11-10T09:51:03.353Z,82.43
2022-11-10T09:52:02.394Z,83.14
2022-11-10T09:53:02.492Z,82.53
2022-11-10T09:54:02.644Z,82.29
2022-11-10T09:55:02.749Z,82.59
2022-11-10T09:56:02.216Z,80.97
2022-11-10T09:57:02.501Z,81.68
2022-11-10T09:58:02.453Z,80.97
2022-11-10T09:59:02.719Z,80.87
2022-11-10T10:00:02.652Z,81.07
2022-11-10T10:01:02.729Z,80.66
2022-11-10T10:02:02.529Z,81.27
2022-11-10T10:03:02.371Z,81.07
2022-11-10T10:04:02.604Z,80.26
2022-11-10T10:05:02.509Z,80.83
2022-11-10T10:06:02.526Z,80.43
2022-11-10T10:07:11.213Z,80.32
2022-11-10T10:08:02.204Z,80.53
2022-11-10T10:09:02.442Z,80.83
2022-11-10T10:10:02.494Z,80.02
2022-11-10T10:11:02.297Z,79.88
2022-11-10T10:12:02.177Z,79.78
2022-11-10T10:13:01.980Z,79.47
2022-11-10T10:14:02.348Z,79.88
2022-11-10T10:15:02.276Z,79.68
2022-11-10T10:16:02.555Z,79.88
2022-11-10T10:17:02.450Z,79.78
2022-11-10T10:18:02.576Z,79.85
2022-11-10T10:19:02.271Z,79.64
2022-11-10T10:20:02.241Z,78.53
2022-11-10T10:21:02.509Z,78.93
2022-11-10T10:22:02.533Z,78.93
2022-11-10T10:23:02.000Z,79.54
2022-11-10T10:24:12.679Z,79.74
2022-11-10T10:25:01.810Z,79.40
2022-11-10T10:26:02.331Z,78.49
2022-11-10T10:27:01.874Z,78.79
2022-11-10T10:28:01.779Z,78.69
2022-11-10T10:29:01.851Z,79.00
2022-11-10T10:30:01.828Z,78.69
2022-11-10T10:31:01.870Z,78.59
2022-11-10T10:32:02.320Z,78.96
2022-11-10T10:33:02.267Z,78.15
2022-11-10T10:34:02.117Z,77.75
2022-11-10T10:35:01.927Z,76.83
2022-11-10T10:36:02.162Z,77.34
2022-11-10T10:37:01.975Z,78.25
2022-11-10T10:38:01.719Z,77.64
2022-11-10T10:39:01.799Z,78.05
2022-11-10T10:40:01.688Z,78.01
2022-11-10T10:41:01.518Z,77.71
2022-11-10T10:42:02.396Z,77.20
2022-11-10T10:43:02.145Z,76.66
2022-11-10T10:44:02.361Z,76.26
2022-11-10T10:45:02.621Z,75.89
2022-11-10T10:46:02.039Z,75.58
2022-11-10T10:47:02.803Z,75.79
2022-11-10T10:48:02.348Z,75.58
2022-11-10T10:49:26.740Z,75.58
2022-11-10T10:50:02.905Z,76.39
2022-11-10T10:51:02.664Z,76.15
2022-11-10T10:52:02.105Z,75.75
2022-11-10T10:53:02.062Z,75.65
2022-11-10T10:54:01.983Z,75.28
2022-11-10T10:55:02.187Z,74.87
2022-11-10T10:56:02.172Z,75.68
2022-11-10T10:57:02.302Z,75.58
2022-11-10T10:58:01.883Z,75.48
2022-11-10T10:59:02.199Z,75.99
2022-11-10T11:00:01.870Z,75.55
2022-11-10T11:01:02.269Z,75.85
2022-11-10T11:02:02.417Z,75.34
2022-11-10T11:03:04.586Z,74.50
2022-11-10T11:04:02.278Z,74.60
2022-11-10T11:05:01.939Z,74.70
2022-11-10T11:06:02.447Z,73.99
2022-11-10T11:07:02.507Z,74.50
2022-11-10T11:08:02.528Z,73.79
2022-11-10T11:09:02.134Z,73.99
2022-11-10T11:10:02.239Z,74.37
2022-11-10T11:11:02.591Z,72.85
2022-11-10T11:12:03.104Z,72.55
2022-11-10T11:13:02.552Z,73.15
2022-11-10T11:14:02.780Z,73.55
2022-11-10T11:15:03.192Z,73.46
2022-11-10T11:16:02.967Z,71.94
2022-11-10T11:17:03.301Z,72.71
2022-11-10T11:18:02.854Z,72.51
2022-11-10T11:19:03.229Z,71.80
2022-11-10T11:20:02.712Z,71.80
2022-11-10T11:21:02.734Z,71.70
2022-11-10T11:22:02.581Z,72.71
2022-11-10T11:23:02.210Z,73.58
2022-11-10T11:24:02.429Z,71.87
2022-11-10T11:25:02.634Z,71.67
2022-11-10T11:26:02.155Z,70.42
2022-11-10T11:27:02.963Z,69.62
2022-11-10T11:28:02.646Z,69.01
2022-11-10T11:29:02.991Z,68.95
2022-11-10T11:30:02.965Z,69.24
2022-11-10T11:31:02.489Z,69.35
2022-11-10T11:32:03.126Z,69.15
2022-11-10T11:33:02.607Z,69.24
2022-11-10T11:34:02.738Z,70.26
2022-11-10T11:35:02.840Z,69.04
2022-11-10T11:36:02.590Z,69.04
2022-11-10T11:37:08.414Z,69.31
2022-11-10T11:38:02.235Z,69.92
2022-11-10T11:39:01.917Z,69.72
2022-11-10T11:40:02.081Z,70.59
2022-11-10T11:41:02.048Z,67.67
2022-11-10T11:42:02.960Z,68.01
2022-11-10T11:43:02.553Z,67.40
2022-11-10T11:44:02.688Z,69.01
2022-11-10T11:45:02.580Z,68.81
2022-11-10T11:46:02.709Z,69.38
2022-11-10T11:47:03.181Z,70.19
2022-11-10T11:48:02.582Z,67.47
2022-11-10T11:49:03.042Z,67.87
2022-11-10T11:50:02.685Z,67.36
2022-11-10T11:51:02.985Z,67.27
2022-11-10T11:52:01.861Z,67.94
2022-11-10T11:53:02.059Z,67.63
2022-11-10T11:54:02.329Z,66.93
2022-11-10T11:55:02.070Z,67.03
2022-11-10T11:56:01.948Z,66.73
2022-11-10T11:57:02.075Z,67.13
2022-11-10T11:58:02.227Z,66.22
2022-11-10T11:59:02.478Z,67.33
2022-11-10T12:00:02.561Z,66.46
2022-11-10T12:01:02.463Z,66.66
2022-11-10T12:02:02.818Z,67.77
2022-11-10T12:03:03.051Z,66.76
2022-11-10T12:04:03.049Z,66.25
2022-11-10T12:05:02.729Z,67.16
2022-11-10T12:06:03.187Z,67.57
2022-11-10T12:07:03.283Z,66.49
2022-11-10T12:08:03.175Z,67.19
2022-11-10T12:09:03.247Z,68.17
2022-11-10T12:10:03.221Z,67.36
2022-11-10T12:11:03.387Z,67.07
2022-11-10T12:12:03.783Z,66.56
2022-11-10T12:13:02.897Z,67.77
2022-11-10T12:14:03.157Z,67.94
2022-11-10T12:15:03.170Z,66.42
2022-11-10T12:16:02.967Z,67.03
2022-11-10T12:17:02.968Z,67.40
2022-11-10T12:18:03.771Z,66.39
2022-11-10T12:19:03.606Z,65.99
2022-11-10T12:20:03.649Z,66.22
2022-11-10T12:21:03.997Z,66.33
2022-11-10T12:22:03.641Z,66.02
2022-11-10T12:23:03.315Z,66.73
2022-11-10T12:24:08.852Z,65.92
2022-11-10T12:25:02.965Z,66.93
2022-11-10T12:26:03.101Z,66.73
2022-11-10T12:27:03.063Z,66.73
2022-11-10T12:28:03.042Z,66.93
2022-11-10T12:29:03.076Z,66.80
2022-11-10T12:30:02.513Z,66.30
2022-11-10T12:31:02.942Z,65.89
2022-11-10T12:32:02.487Z,66.30
2022-11-10T12:33:03.182Z,65.62
2022-11-10T12:34:03.046Z,67.54
2022-11-10T12:35:03.296Z,66.60
2022-11-10T12:36:03.075Z,66.09
2022-11-10T12:37:03.172Z,66.60
2022-11-10T12:38:03.142Z,66.90
2022-11-10T12:39:02.539Z,66.30
2022-11-10T12:40:02.860Z,67.80
2022-11-10T12:41:02.922Z,66.87
2022-11-10T12:42:02.903Z,66.06
2022-11-10T12:43:03.670Z,65.86
2022-11-10T12:44:03.848Z,65.86
2022-11-10T12:45:03.691Z,65.86
2022-11-10T12:46:03.448Z,66.30
2022-11-10T12:47:03.180Z,66.60
2022-11-10T12:48:03.112Z,66.70
2022-11-10T12:49:02.622Z,66.90
2022-11-10T12:50:02.615Z,67.50
2022-11-10T12:51:02.723Z,67.97
2022-11-10T12:52:03.144Z,67.34